Ana Sayfa
METAR-TAF:

METAR-TAF

Havaalanları :

Kuveyt, Kuveyt

Enlem: 29-13N, Boylam: 047-59E, yükseklik: 55 m

Güncel hava durumu gözlemi

Rapor saat 13:00 UTC de 49 dakika önce yapıldı.
Rüzgar doğu/güneydoğudan 12 kt
Sıcaklık 23°C
Nem 41%
Basınç 1017 hPa
Görüş mesafesi 10 km veya daha fazla
1500 m altında bulut yok ve kümülonimbus yok

METAR: OKBK 221300Z 12012KT CAVOK 23/09 Q1017 NOSIG

Saat: 16:49 (13:49 UTC)

Tahmin

Rapor saat 10:45 UTC de 3 saat ve 4 dakika önce yapıldı.
Ayın 22'si saat 12 UTC'den ayın 23'si saat 18 UTC'ye kadar geçerli Tahmin
Rüzgar güney/güneydoğudan 12 kt
Görüş mesafesi: 7000 m
Geçici
ayın 22'si saat 23 UTC'den ayın 23'si saat 03 UTC'ye kadar
Rüzgar değişken yönden 3 kt

TAF: OKBK 221045Z 2212/2318 15012KT 7000 NSC TEMPO 2223/2303 VRB03KT

4.000'den fazla havaalanı için hava durumu gözlemleri ve tahminleri (METAR ve TAF raporları).

Kullanılabilir istasyonlar harita üzerinde sarı ve kırmızı noktalarla gösterilir.

İstasyonun adını görmek için fareyi noktanın üzerinde gezdirin.

Sonrasında hava gözlem ve tahminlerini görmek için tıklayın.

Haritayı değiştirmek için: yaklaştırmak için siyah artı işaretli yeşil düğmeye ve uzaklaştırmak için de eksi işaretli düğmeye hızla tıklayın; bitişik haritalar için yeşil okları kullanın.


METAR-TAF: